Main page
METAR-TAF:

METAR-TAF

Airports :

João Paulo II Airport

Ponta Delgada, Azores, Portugal

latitude: 37-44N, longitude: 025-42W, elevation: 71 m

Current weather observation

The report was made 15 minutes ago, at 11:00 UTC
Wind 12 kt from the Northwest, varying between West and North
Temperature 17°C
Humidity 63%
Pressure 1020 hPa
Visibility 10 km or more
Few clouds at a height of 2000 ft

METAR: LPPD 091100Z 31012KT 280V350 9999 FEW020 17/10 Q1020

Time: 11:15 (11:15 UTC)

Forecast

The report was made 6 hours and 15 minutes ago, at 05:00 UTC
Forecast valid from 09 at 06 UTC to 10 at 06 UTC
Wind 8 kt from the West/Northwest
Visibility 10 km or more
Scattered clouds at a height of 2000 ft
Temporary
from 09 at 06 UTC to 10 at 06 UTC
Few clouds at a height of 1500 ft
Broken clouds at a height of 4000 ft

TAF: LPPD 090500Z 0906/1006 30008KT 9999 SCT020 TEMPO 0906/1006 FEW015 BKN040

Weather observations and forecasts of more than 4000 airports (METAR and TAF reports).

The available stations are represented by yellow and red dots on the map.

Hover mouse over dot to see the name of the station.

Then click to see weather observations and forecasts.

To change the map : click on the green buttons with a black cross to zoom in, on the green button with a dash to zoom out, or on the green arrows for adjacent maps.


METAR-TAF: